createdAt,value
2023-04-04T00:00:12.580Z,100285.41
2023-04-04T00:00:40.863Z,100284.75
2023-04-04T00:01:05.658Z,100286.33
2023-04-04T00:01:31.849Z,100287.31
2023-04-04T00:01:55.564Z,100283.17
2023-04-04T00:02:18.632Z,100285.88
2023-04-04T00:02:42.872Z,100282.99
2023-04-04T00:03:06.926Z,100282.73
2023-04-04T00:03:31.111Z,100281.44
2023-04-04T00:03:55.096Z,100282.27
2023-04-04T00:04:18.998Z,100278.84
2023-04-04T00:04:42.212Z,100285.09
2023-04-04T00:05:06.208Z,100286.04
2023-04-04T00:05:29.435Z,100283.30
2023-04-04T00:05:52.454Z,100284.08
2023-04-04T00:06:15.553Z,100283.70
2023-04-04T00:06:44.446Z,100284.80
2023-04-04T00:07:07.606Z,100284.29
2023-04-04T00:07:31.024Z,100284.92
2023-04-04T00:07:54.163Z,100286.27
2023-04-04T00:08:23.909Z,100286.88
2023-04-04T00:08:47.119Z,100283.18
2023-04-04T00:09:10.721Z,100284.98
2023-04-04T00:09:34.920Z,100285.77
2023-04-04T00:10:00.970Z,100284.67
2023-04-04T00:10:25.844Z,100287.55
2023-04-04T00:10:49.733Z,100287.66
2023-04-04T00:11:13.987Z,100287.08
2023-04-04T00:11:38.939Z,100289.13
2023-04-04T00:12:02.980Z,100287.67
2023-04-04T00:12:28.487Z,100288.68
2023-04-04T00:12:53.089Z,100292.19
2023-04-04T00:13:16.718Z,100291.19
2023-04-04T00:13:40.280Z,100289.73
2023-04-04T00:14:03.759Z,100288.40
2023-04-04T00:14:27.590Z,100289.69
2023-04-04T00:14:51.421Z,100289.39
2023-04-04T00:15:14.607Z,100293.48
2023-04-04T00:15:42.253Z,100294.95
2023-04-04T00:16:06.214Z,100293.30
2023-04-04T00:16:34.153Z,100296.67
2023-04-04T00:16:58.957Z,100297.35
2023-04-04T00:17:22.093Z,100294.31
2023-04-04T00:17:46.011Z,100294.86
2023-04-04T00:18:09.634Z,100294.05
2023-04-04T00:18:33.260Z,100295.94
2023-04-04T00:18:56.265Z,100296.13
2023-04-04T00:19:19.889Z,100294.13
2023-04-04T00:19:43.004Z,100295.46
2023-04-04T00:20:06.734Z,100293.77
2023-04-04T00:20:30.872Z,100296.36
2023-04-04T00:20:53.823Z,100295.80
2023-04-04T00:21:19.247Z,100298.33
2023-04-04T00:21:42.767Z,100298.66
2023-04-04T00:22:05.986Z,100300.70
2023-04-04T00:22:29.814Z,100296.60
2023-04-04T00:22:52.940Z,100301.83
2023-04-04T00:23:16.154Z,100292.63
2023-04-04T00:23:39.668Z,100295.84
2023-04-04T00:24:02.883Z,100295.77
2023-04-04T00:24:26.734Z,100293.52
2023-04-04T00:24:50.339Z,100299.63
2023-04-04T00:25:13.554Z,100297.02
2023-04-04T00:25:37.282Z,100297.14
2023-04-04T00:26:00.502Z,100298.61
2023-04-04T00:26:24.125Z,100297.30
2023-04-04T00:26:47.546Z,100297.63
2023-04-04T00:27:11.584Z,100298.41
2023-04-04T00:27:34.824Z,100298.27
2023-04-04T00:28:01.133Z,100300.35
2023-04-04T00:28:24.912Z,100303.05
2023-04-04T00:28:48.331Z,100303.84
2023-04-04T00:29:11.456Z,100305.21
2023-04-04T00:29:37.429Z,100306.34
2023-04-04T00:30:00.952Z,100306.36
2023-04-04T00:30:25.084Z,100307.60
2023-04-04T00:30:48.759Z,100306.45
2023-04-04T00:31:12.169Z,100306.92
2023-04-04T00:31:36.810Z,100307.02
2023-04-04T00:32:00.153Z,100305.73
2023-04-04T00:32:23.590Z,100304.81
2023-04-04T00:32:47.113Z,100308.36
2023-04-04T00:33:10.882Z,100308.38
2023-04-04T00:33:34.035Z,100304.39
2023-04-04T00:33:57.097Z,100306.55
2023-04-04T00:34:20.110Z,100307.41
2023-04-04T00:34:43.482Z,100307.41
2023-04-04T00:35:09.212Z,100308.29
2023-04-04T00:35:34.343Z,100306.03
2023-04-04T00:35:58.205Z,100304.45
2023-04-04T00:36:21.397Z,100303.93
2023-04-04T00:37:40.679Z,100297.18
2023-04-04T00:38:04.298Z,100304.41
2023-04-04T00:38:29.864Z,100305.29
2023-04-04T00:38:52.876Z,100303.39
2023-04-04T00:39:16.096Z,100302.34
2023-04-04T00:39:39.742Z,100302.52
2023-04-04T00:40:04.384Z,100304.48
2023-04-04T00:40:27.815Z,100301.54
2023-04-04T00:40:51.938Z,100304.39
2023-04-04T00:41:16.063Z,100303.14
2023-04-04T00:41:39.937Z,100303.49
2023-04-04T00:42:04.234Z,100305.05
2023-04-04T00:42:28.697Z,100307.27
2023-04-04T00:42:53.542Z,100305.66
2023-04-04T00:43:17.163Z,100303.40
2023-04-04T00:43:40.344Z,100306.14
2023-04-04T00:44:03.491Z,100308.14
2023-04-04T00:44:26.907Z,100308.75
2023-04-04T00:44:51.455Z,100308.35
2023-04-04T00:45:14.834Z,100309.02
2023-04-04T00:45:38.140Z,100307.41
2023-04-04T00:46:02.214Z,100309.85
2023-04-04T00:46:27.390Z,100309.89
2023-04-04T00:47:30.519Z,100311.91
2023-04-04T00:47:53.629Z,100312.33
2023-04-04T00:48:16.723Z,100313.94
2023-04-04T00:48:40.656Z,100311.65
2023-04-04T00:49:04.074Z,100313.13
2023-04-04T00:49:27.804Z,100315.96
2023-04-04T00:49:51.427Z,100317.61
2023-04-04T00:50:14.741Z,100315.89
2023-04-04T00:50:40.252Z,100313.89
2023-04-04T00:51:05.886Z,100316.39
2023-04-04T00:51:29.926Z,100313.15
2023-04-04T00:51:53.150Z,100316.16
2023-04-04T00:52:16.450Z,100314.66
2023-04-04T00:52:40.117Z,100317.14
2023-04-04T00:53:03.529Z,100317.36
2023-04-04T00:53:27.229Z,100313.38
2023-04-04T00:53:50.967Z,100312.62
2023-04-04T00:54:14.026Z,100313.56
2023-04-04T00:54:37.184Z,100313.05
2023-04-04T00:55:01.113Z,100314.80
2023-04-04T00:55:24.685Z,100312.70
2023-04-04T00:55:50.000Z,100314.80
2023-04-04T00:56:14.149Z,100315.35
2023-04-04T00:56:39.740Z,100314.17
2023-04-04T00:57:04.269Z,100317.77
2023-04-04T00:57:28.810Z,100317.65
2023-04-04T00:57:52.218Z,100315.52
2023-04-04T00:58:15.661Z,100315.67
2023-04-04T00:58:39.777Z,100318.67
2023-04-04T00:59:14.879Z,100316.21
2023-04-04T00:59:38.401Z,100318.42
2023-04-04T01:00:02.726Z,100318.62
2023-04-04T01:00:27.778Z,100320.98
2023-04-04T01:01:13.585Z,100320.06
2023-04-04T01:01:43.270Z,100318.41
2023-04-04T01:02:08.524Z,100318.19
2023-04-04T01:02:32.797Z,100321.30
2023-04-04T01:02:57.126Z,100317.32
2023-04-04T01:03:21.051Z,100319.33
2023-04-04T01:03:45.493Z,100318.27
2023-04-04T01:04:09.233Z,100316.98
2023-04-04T01:04:32.930Z,100317.51
2023-04-04T01:04:56.350Z,100314.02
2023-04-04T01:05:20.080Z,100315.50
2023-04-04T01:05:43.405Z,100315.73
2023-04-04T01:06:08.786Z,100313.63
2023-04-04T01:06:32.998Z,100318.09
2023-04-04T01:06:56.324Z,100316.18
2023-04-04T01:07:19.772Z,100318.04
2023-04-04T01:07:43.466Z,100316.66
2023-04-04T01:08:07.514Z,100315.64
2023-04-04T01:08:31.836Z,100320.04
2023-04-04T01:08:56.180Z,100314.08
2023-04-04T01:09:19.504Z,100315.95
2023-04-04T01:09:43.228Z,100316.04
2023-04-04T01:10:07.369Z,100317.95
2023-04-04T01:10:31.304Z,100318.73
2023-04-04T01:10:56.660Z,100318.52
2023-04-04T01:11:19.981Z,100319.70
2023-04-04T01:11:43.603Z,100320.04
2023-04-04T01:12:07.023Z,100316.65
2023-04-04T01:12:30.454Z,100319.98
2023-04-04T01:12:53.765Z,100319.22
2023-04-04T01:13:16.883Z,100320.08
2023-04-04T01:13:40.110Z,100319.98
2023-04-04T01:14:05.253Z,100319.37
2023-04-04T01:14:29.495Z,100320.95
2023-04-04T01:14:52.608Z,100318.97
2023-04-04T01:15:16.133Z,100320.36
2023-04-04T01:15:39.397Z,100322.45
2023-04-04T01:16:02.869Z,100318.52
2023-04-04T01:16:26.505Z,100322.85
2023-04-04T01:16:49.950Z,100320.93
2023-04-04T01:17:13.874Z,100321.04
2023-04-04T01:17:37.814Z,100322.20
2023-04-04T01:18:02.518Z,100322.88
2023-04-04T01:18:27.080Z,100322.68
2023-04-04T01:18:51.113Z,100321.62
2023-04-04T01:19:14.669Z,100322.94
2023-04-04T01:19:45.930Z,100322.92
2023-04-04T01:20:17.839Z,100325.81
2023-04-04T01:21:06.423Z,100325.25
2023-04-04T01:21:30.664Z,100325.00
2023-04-04T01:21:53.980Z,100325.19
2023-04-04T01:22:17.215Z,100325.27
2023-04-04T01:22:41.844Z,100325.82
2023-04-04T01:23:04.856Z,100325.84
2023-04-04T01:23:48.631Z,100324.34
2023-04-04T01:24:12.762Z,100327.33
2023-04-04T01:24:41.915Z,100327.52
2023-04-04T01:25:06.523Z,100326.46
2023-04-04T01:25:32.254Z,100320.35
2023-04-04T01:26:01.277Z,100322.98
2023-04-04T01:26:24.699Z,100322.44
2023-04-04T01:26:49.962Z,100323.26
2023-04-04T01:27:14.822Z,100323.56
2023-04-04T01:27:54.805Z,100323.30
2023-04-04T01:28:18.939Z,100323.84
2023-04-04T01:28:42.888Z,100322.35
2023-04-04T01:29:08.657Z,100326.44
2023-04-04T01:29:33.089Z,100324.95
2023-04-04T01:29:57.259Z,100324.18
2023-04-04T01:30:20.339Z,100323.56
2023-04-04T01:30:44.426Z,100324.23
2023-04-04T01:31:08.524Z,100324.20
2023-04-04T01:31:34.385Z,100326.81
2023-04-04T01:32:00.980Z,100326.81
2023-04-04T01:32:31.497Z,100324.39
2023-04-04T01:32:58.362Z,100321.17
2023-04-04T01:33:23.512Z,100321.04
2023-04-04T01:33:49.388Z,100321.35
2023-04-04T01:34:13.324Z,100322.17
2023-04-04T01:34:51.986Z,100322.91
2023-04-04T01:35:34.352Z,100321.27
2023-04-04T01:36:15.912Z,100321.20
2023-04-04T01:37:12.767Z,100320.14
2023-04-04T01:37:40.938Z,100315.95
2023-04-04T01:38:07.569Z,100312.45
2023-04-04T01:38:31.563Z,100315.23
2023-04-04T01:38:59.783Z,100314.27
2023-04-04T01:39:35.704Z,100313.48
2023-04-04T01:40:18.045Z,100312.80
2023-04-04T01:40:46.688Z,100312.37
2023-04-04T01:41:10.296Z,100315.20
2023-04-04T01:41:38.829Z,100317.17
2023-04-04T01:42:02.565Z,100318.70
2023-04-04T01:42:26.078Z,100320.25
2023-04-04T01:42:49.605Z,100321.17
2023-04-04T01:43:13.641Z,100326.71
2023-04-04T01:43:38.354Z,100324.33
2023-04-04T01:44:02.220Z,100322.27
2023-04-04T01:44:26.582Z,100326.71
2023-04-04T01:44:54.686Z,100324.73
2023-04-04T01:45:17.914Z,100327.70
2023-04-04T01:45:41.966Z,100331.92
2023-04-04T01:46:08.084Z,100329.23
2023-04-04T01:46:32.574Z,100332.13
2023-04-04T01:46:57.224Z,100332.38
2023-04-04T01:47:22.178Z,100331.61
2023-04-04T01:47:46.032Z,100333.88
2023-04-04T01:48:16.836Z,100332.20
2023-04-04T01:48:43.282Z,100333.50
2023-04-04T01:49:07.020Z,100333.02
2023-04-04T01:49:32.378Z,100337.63
2023-04-04T01:49:56.293Z,100335.05
2023-04-04T01:50:20.122Z,100336.17
2023-04-04T01:50:43.236Z,100336.95
2023-04-04T01:51:07.174Z,100338.58
2023-04-04T01:51:30.794Z,100337.69
2023-04-04T01:51:53.754Z,100341.66
2023-04-04T01:52:18.260Z,100341.89
2023-04-04T01:52:41.322Z,100340.80
2023-04-04T01:53:04.823Z,100342.23
2023-04-04T01:53:28.218Z,100339.67
2023-04-04T01:53:51.530Z,100338.95
2023-04-04T01:54:14.845Z,100340.63
2023-04-04T01:54:37.888Z,100338.73
2023-04-04T01:55:01.481Z,100338.38
2023-04-04T01:55:25.109Z,100335.04
2023-04-04T01:55:48.731Z,100332.16
2023-04-04T01:56:13.485Z,100335.98
2023-04-04T01:56:37.314Z,100334.95
2023-04-04T01:57:01.046Z,100332.16
2023-04-04T01:57:24.370Z,100337.20
2023-04-04T01:57:48.295Z,100336.27
2023-04-04T01:58:16.627Z,100336.19
2023-04-04T01:58:40.044Z,100330.67
2023-04-04T01:59:03.171Z,100332.72
2023-04-04T01:59:26.975Z,100332.32
2023-04-04T01:59:50.508Z,100333.86
2023-04-04T02:00:13.934Z,100334.70
2023-04-04T02:00:40.307Z,100331.54
2023-04-04T02:01:03.739Z,100330.70
2023-04-04T02:01:28.655Z,100331.16
2023-04-04T02:01:52.220Z,100329.46
2023-04-04T02:02:15.840Z,100329.65
2023-04-04T02:02:39.532Z,100326.41
2023-04-04T02:03:02.811Z,100326.66
2023-04-04T02:03:25.999Z,100328.48
2023-04-04T02:03:49.654Z,100329.98
2023-04-04T02:04:18.194Z,100331.48
2023-04-04T02:04:43.337Z,100335.22
2023-04-04T02:05:06.670Z,100332.70
2023-04-04T02:05:30.574Z,100332.92
2023-04-04T02:05:55.013Z,100334.08
2023-04-04T02:06:18.231Z,100337.63
2023-04-04T02:06:42.365Z,100336.96
2023-04-04T02:07:06.711Z,100336.03
2023-04-04T02:07:30.237Z,100338.77
2023-04-04T02:07:53.768Z,100340.16
2023-04-04T02:08:39.575Z,100337.12
2023-04-04T02:09:03.507Z,100338.59
2023-04-04T02:09:26.723Z,100338.77
2023-04-04T02:09:49.740Z,100338.73
2023-04-04T02:10:13.271Z,100336.26
2023-04-04T02:10:38.165Z,100338.64
2023-04-04T02:11:06.368Z,100334.19
2023-04-04T02:11:30.908Z,100330.98
2023-04-04T02:12:00.137Z,100331.06
2023-04-04T02:12:26.757Z,100332.27
2023-04-04T02:12:53.530Z,100333.63
2023-04-04T02:13:18.399Z,100333.23
2023-04-04T02:13:58.781Z,100335.97
2023-04-04T02:14:23.220Z,100336.75
2023-04-04T02:14:48.376Z,100333.78
2023-04-04T02:15:12.115Z,100336.34
2023-04-04T02:15:35.782Z,100336.98
2023-04-04T02:15:59.182Z,100339.20
2023-04-04T02:16:22.595Z,100339.25
2023-04-04T02:16:47.322Z,100338.34
2023-04-04T02:17:11.051Z,100336.65
2023-04-04T02:17:35.890Z,100337.27
2023-04-04T02:18:01.791Z,100339.40
2023-04-04T02:18:26.059Z,100338.92
2023-04-04T02:18:49.128Z,100342.08
2023-04-04T02:19:13.989Z,100339.90
2023-04-04T02:19:38.436Z,100342.66
2023-04-04T02:20:04.403Z,100343.59
2023-04-04T02:20:27.827Z,100340.89
2023-04-04T02:20:59.944Z,100343.65
2023-04-04T02:21:25.814Z,100345.77
2023-04-04T02:21:49.130Z,100347.80
2023-04-04T02:22:12.185Z,100347.98
2023-04-04T02:22:35.668Z,100347.94
2023-04-04T02:22:58.780Z,100347.24
2023-04-04T02:23:21.996Z,100345.94
2023-04-04T02:23:45.030Z,100350.06
2023-04-04T02:24:08.229Z,100347.19
2023-04-04T02:24:31.465Z,100347.14
2023-04-04T02:24:54.758Z,100345.66
2023-04-04T02:25:17.876Z,100349.84
2023-04-04T02:25:41.293Z,100347.65
2023-04-04T02:26:10.864Z,100348.89
2023-04-04T02:26:35.298Z,100349.38
2023-04-04T02:26:58.733Z,100350.52
2023-04-04T02:27:23.265Z,100350.28
2023-04-04T02:27:46.886Z,100350.55
2023-04-04T02:28:11.657Z,100349.26
2023-04-04T02:28:35.279Z,100349.96
2023-04-04T02:28:59.095Z,100349.53
2023-04-04T02:29:23.131Z,100348.25
2023-04-04T02:29:47.061Z,100349.25
2023-04-04T02:30:10.991Z,100348.26
2023-04-04T02:30:34.816Z,100350.62
2023-04-04T02:31:02.552Z,100350.79
2023-04-04T02:31:26.626Z,100352.29
2023-04-04T02:31:50.406Z,100351.77
2023-04-04T02:32:13.619Z,100357.36
2023-04-04T02:32:38.255Z,100360.30
2023-04-04T02:33:01.846Z,100359.42
2023-04-04T02:33:25.414Z,100357.13
2023-04-04T02:33:49.559Z,100362.32
2023-04-04T02:34:14.989Z,100365.07
2023-04-04T02:34:38.350Z,100364.44
2023-04-04T02:35:02.511Z,100370.07
2023-04-04T02:35:26.103Z,100368.25
2023-04-04T02:35:49.557Z,100370.91
2023-04-04T02:36:15.666Z,100371.23
2023-04-04T02:36:39.009Z,100371.81
2023-04-04T02:37:03.980Z,100375.20
2023-04-04T02:37:27.720Z,100372.84
2023-04-04T02:37:51.434Z,100373.90
2023-04-04T02:38:20.181Z,100373.96
2023-04-04T02:38:43.490Z,100375.63
2023-04-04T02:39:06.604Z,100376.96
2023-04-04T02:39:32.482Z,100375.46
2023-04-04T02:39:56.206Z,100375.52
2023-04-04T02:40:19.657Z,100372.30
2023-04-04T02:40:45.378Z,100374.84
2023-04-04T02:41:08.516Z,100371.41
2023-04-04T02:41:32.557Z,100369.04
2023-04-04T02:41:55.683Z,100365.27
2023-04-04T02:42:18.986Z,100365.20
2023-04-04T02:42:43.019Z,100364.62
2023-04-04T02:43:06.640Z,100363.15
2023-04-04T02:43:31.905Z,100357.00
2023-04-04T02:43:56.247Z,100357.33
2023-04-04T02:44:19.359Z,100355.61
2023-04-04T02:44:43.394Z,100355.13
2023-04-04T02:45:09.779Z,100354.33
2023-04-04T02:45:33.304Z,100352.14
2023-04-04T02:46:14.377Z,100352.63
2023-04-04T02:46:45.185Z,100350.52
2023-04-04T02:47:10.660Z,100353.11
2023-04-04T02:47:34.216Z,100354.91
2023-04-04T02:47:57.479Z,100352.23
2023-04-04T02:48:25.412Z,100355.02
2023-04-04T02:48:50.700Z,100355.64
2023-04-04T02:49:14.525Z,100355.74
2023-04-04T02:49:41.531Z,100353.02
2023-04-04T02:50:04.947Z,100360.12
2023-04-04T02:50:31.027Z,100356.64
2023-04-04T02:50:58.855Z,100357.94
2023-04-04T02:51:22.513Z,100363.42
2023-04-04T02:51:45.693Z,100356.55
2023-04-04T02:52:09.413Z,100359.02
2023-04-04T02:52:35.496Z,100362.56
2023-04-04T02:53:02.805Z,100365.30
2023-04-04T02:53:28.490Z,100362.41
2023-04-04T02:53:55.104Z,100363.63
2023-04-04T02:54:22.989Z,100359.67
2023-04-04T02:54:46.511Z,100358.55
2023-04-04T02:55:18.002Z,100363.17
2023-04-04T02:55:41.157Z,100361.59
2023-04-04T02:56:05.403Z,100363.45
2023-04-04T02:56:29.022Z,100357.56
2023-04-04T02:56:53.646Z,100360.42
2023-04-04T02:57:17.058Z,100359.96
2023-04-04T02:57:41.002Z,100360.21
2023-04-04T02:58:04.211Z,100355.85
2023-04-04T02:58:28.152Z,100352.91
2023-04-04T02:58:51.328Z,100354.27
2023-04-04T02:59:14.738Z,100350.30
2023-04-04T02:59:38.447Z,100352.59
2023-04-04T03:00:03.684Z,100351.36
2023-04-04T03:00:27.598Z,100355.23
2023-04-04T03:00:54.936Z,100353.64
2023-04-04T03:01:19.767Z,100354.77
2023-04-04T03:01:43.587Z,100357.05
2023-04-04T03:02:06.857Z,100353.06
2023-04-04T03:02:30.972Z,100356.44
2023-04-04T03:02:55.827Z,100354.58
2023-04-04T03:03:22.247Z,100355.15
2023-04-04T03:03:46.685Z,100356.44
2023-04-04T03:04:10.314Z,100354.79
2023-04-04T03:04:33.700Z,100356.03
2023-04-04T03:04:56.893Z,100350.84
2023-04-04T03:05:20.007Z,100355.46
2023-04-04T03:05:45.158Z,100354.30
2023-04-04T03:06:09.096Z,100356.77
2023-04-04T03:06:33.229Z,100358.91
2023-04-04T03:06:58.081Z,100354.95
2023-04-04T03:07:22.944Z,100356.92
2023-04-04T03:07:47.734Z,100353.25
2023-04-04T03:08:11.121Z,100358.81
2023-04-04T03:08:36.163Z,100358.25
2023-04-04T03:08:59.801Z,100359.15
2023-04-04T03:09:23.210Z,100358.09
2023-04-04T03:09:46.974Z,100356.80
2023-04-04T03:10:10.359Z,100355.67
2023-04-04T03:10:33.682Z,100356.77
2023-04-04T03:10:56.833Z,100362.30
2023-04-04T03:11:23.181Z,100357.77
2023-04-04T03:11:46.808Z,100359.76
2023-04-04T03:12:20.605Z,100359.95
2023-04-04T03:12:45.917Z,100356.79
2023-04-04T03:13:08.934Z,100359.02
2023-04-04T03:13:35.014Z,100355.55
2023-04-04T03:13:58.232Z,100357.58
2023-04-04T03:14:30.197Z,100356.94
2023-04-04T03:14:54.581Z,100357.04
2023-04-04T03:15:17.796Z,100354.39
2023-04-04T03:15:41.950Z,100357.11
2023-04-04T03:16:08.576Z,100354.30
2023-04-04T03:16:42.156Z,100355.70
2023-04-04T03:17:05.514Z,100357.38
2023-04-04T03:17:29.474Z,100356.45
2023-04-04T03:17:52.872Z,100355.77
2023-04-04T03:18:17.578Z,100359.08
2023-04-04T03:18:47.156Z,100360.86
2023-04-04T03:19:15.507Z,100359.44
2023-04-04T03:19:38.900Z,100362.23
2023-04-04T03:20:03.145Z,100363.50
2023-04-04T03:20:26.576Z,100362.78
2023-04-04T03:20:50.291Z,100362.44
2023-04-04T03:21:13.948Z,100366.30
2023-04-04T03:21:38.769Z,100365.59
2023-04-04T03:22:02.186Z,100366.80
2023-04-04T03:22:27.263Z,100366.80
2023-04-04T03:22:50.571Z,100362.24
2023-04-04T03:23:13.882Z,100367.83
2023-04-04T03:23:36.798Z,100367.48
2023-04-04T03:24:00.019Z,100361.77
2023-04-04T03:24:23.124Z,100362.66
2023-04-04T03:24:49.522Z,100364.56
2023-04-04T03:25:13.039Z,100364.98
2023-04-04T03:25:37.079Z,100361.60
2023-04-04T03:26:02.843Z,100365.42
2023-04-04T03:26:28.618Z,100364.72
2023-04-04T03:26:51.876Z,100364.11
2023-04-04T03:27:15.046Z,100364.80
2023-04-04T03:27:39.915Z,100362.84
2023-04-04T03:28:10.215Z,100364.45
2023-04-04T03:28:33.498Z,100367.20
2023-04-04T03:28:57.012Z,100366.79
2023-04-04T03:29:21.079Z,100363.20
2023-04-04T03:29:44.264Z,100364.75
2023-04-04T03:30:10.759Z,100363.02
2023-04-04T03:30:36.628Z,100367.08
2023-04-04T03:31:06.527Z,100363.17
2023-04-04T03:31:31.674Z,100367.63
2023-04-04T03:31:55.072Z,100365.38
2023-04-04T03:32:18.392Z,100364.06
2023-04-04T03:32:41.471Z,100365.73
2023-04-04T03:33:08.728Z,100365.28
2023-04-04T03:33:34.120Z,100367.67
2023-04-04T03:33:57.204Z,100367.96
2023-04-04T03:34:20.821Z,100368.45
2023-04-04T03:34:47.309Z,100373.18
2023-04-04T03:35:10.521Z,100371.14
2023-04-04T03:35:33.862Z,100371.41
2023-04-04T03:36:01.696Z,100374.46
2023-04-04T03:36:26.012Z,100370.17
2023-04-04T03:36:49.624Z,100371.52
2023-04-04T03:37:12.646Z,100372.63
2023-04-04T03:37:36.875Z,100373.38
2023-04-04T03:38:03.672Z,100373.79
2023-04-04T03:38:27.600Z,100376.64
2023-04-04T03:38:50.930Z,100379.18
2023-04-04T03:39:13.933Z,100374.08
2023-04-04T03:39:37.207Z,100373.11
2023-04-04T03:40:00.507Z,100378.52
2023-04-04T03:40:23.580Z,100376.51
2023-04-04T03:40:46.905Z,100375.86
2023-04-04T03:41:11.647Z,100380.28
2023-04-04T03:41:36.709Z,100377.98
2023-04-04T03:42:01.972Z,100376.55
2023-04-04T03:42:26.128Z,100376.71
2023-04-04T03:42:49.425Z,100379.52
2023-04-04T03:43:15.813Z,100377.52
2023-04-04T03:43:39.333Z,100378.89
2023-04-04T03:44:03.986Z,100377.09
2023-04-04T03:44:27.516Z,100374.71
2023-04-04T03:44:50.875Z,100379.24
2023-04-04T03:45:22.836Z,100377.27
2023-04-04T03:45:49.447Z,100376.80
2023-04-04T03:46:12.450Z,100376.69
2023-04-04T03:46:36.086Z,100379.36
2023-04-04T03:46:59.685Z,100378.55
2023-04-04T03:47:31.432Z,100380.23
2023-04-04T03:47:56.978Z,100378.29
2023-04-04T03:48:23.250Z,100378.52
2023-04-04T03:48:49.638Z,100381.05
2023-04-04T03:49:13.062Z,100381.98
2023-04-04T03:49:36.482Z,100380.78
2023-04-04T03:49:59.898Z,100381.51
2023-04-04T03:50:23.323Z,100377.70
2023-04-04T03:50:48.275Z,100382.02
2023-04-04T03:51:12.927Z,100382.96
2023-04-04T03:51:36.553Z,100383.95
2023-04-04T03:51:59.970Z,100382.72
2023-04-04T03:52:23.244Z,100382.41
2023-04-04T03:52:47.634Z,100383.02
2023-04-04T03:53:12.180Z,100384.23
2023-04-04T03:53:39.484Z,100385.23
2023-04-04T03:54:07.917Z,100386.30
2023-04-04T03:54:31.638Z,100385.41
2023-04-04T03:54:54.859Z,100383.42
2023-04-04T03:55:18.995Z,100387.13
2023-04-04T03:55:42.515Z,100384.60
2023-04-04T03:56:06.041Z,100385.02
2023-04-04T03:56:31.507Z,100382.21
2023-04-04T03:56:57.082Z,100386.19
2023-04-04T03:57:20.086Z,100383.36
2023-04-04T03:57:43.408Z,100383.34
2023-04-04T03:58:07.337Z,100383.63
2023-04-04T03:58:31.062Z,100383.27
2023-04-04T03:58:56.798Z,100388.88
2023-04-04T03:59:19.895Z,100384.14
2023-04-04T03:59:43.181Z,100383.84
2023-04-04T04:00:07.200Z,100385.51
2023-04-04T04:00:39.187Z,100385.11
2023-04-04T04:01:02.597Z,100386.48
2023-04-04T04:01:26.155Z,100386.48
2023-04-04T04:01:51.136Z,100387.84
2023-04-04T04:02:14.253Z,100384.50
2023-04-04T04:02:38.701Z,100388.90
2023-04-04T04:03:02.230Z,100389.40
2023-04-04T04:03:25.989Z,100388.54
2023-04-04T04:03:49.332Z,100388.56
2023-04-04T04:04:14.445Z,100388.73
2023-04-04T04:04:38.260Z,100386.64
2023-04-04T04:05:01.647Z,100389.70
2023-04-04T04:05:25.067Z,100390.66
2023-04-04T04:05:48.387Z,100391.64
2023-04-04T04:06:11.819Z,100389.45
2023-04-04T04:06:34.931Z,100391.48
2023-04-04T04:06:58.758Z,100394.24
2023-04-04T04:07:21.981Z,100395.36
2023-04-04T04:07:45.696Z,100399.27
2023-04-04T04:08:11.880Z,100396.41
2023-04-04T04:08:37.764Z,100399.28
2023-04-04T04:09:01.483Z,100399.54
2023-04-04T04:09:26.336Z,100398.13
2023-04-04T04:09:50.266Z,100398.62
2023-04-04T04:10:14.421Z,100398.19
2023-04-04T04:10:37.764Z,100398.48
2023-04-04T04:11:05.461Z,100398.55
2023-04-04T04:11:29.595Z,100399.41
2023-04-04T04:11:53.109Z,100398.66
2023-04-04T04:12:16.213Z,100399.15
2023-04-04T04:12:39.330Z,100398.48
2023-04-04T04:13:02.878Z,100399.89
2023-04-04T04:13:26.684Z,100399.47
2023-04-04T04:13:50.062Z,100398.79
2023-04-04T04:14:14.137Z,100398.98
2023-04-04T04:14:37.555Z,100401.34
2023-04-04T04:15:02.838Z,100398.64
2023-04-04T04:15:29.892Z,100401.60
2023-04-04T04:15:54.860Z,100401.35
2023-04-04T04:16:22.100Z,100406.78
2023-04-04T04:16:46.324Z,100401.63
2023-04-04T04:17:12.297Z,100404.10
2023-04-04T04:17:39.399Z,100405.13
2023-04-04T04:18:02.969Z,100408.17
2023-04-04T04:18:27.674Z,100410.09
2023-04-04T04:18:51.300Z,100408.70
2023-04-04T04:19:20.666Z,100408.84
2023-04-04T04:19:43.679Z,100412.52
2023-04-04T04:20:10.155Z,100409.56
2023-04-04T04:20:37.461Z,100407.61
2023-04-04T04:21:02.004Z,100410.97
2023-04-04T04:21:30.949Z,100412.02
2023-04-04T04:21:56.110Z,100407.48
2023-04-04T04:22:19.131Z,100412.85
2023-04-04T04:22:46.561Z,100412.67
2023-04-04T04:23:09.659Z,100410.98
2023-04-04T04:23:32.965Z,100411.88
2023-04-04T04:23:56.387Z,100411.94
2023-04-04T04:24:19.839Z,100412.89
2023-04-04T04:24:43.024Z,100414.83
2023-04-04T04:25:06.443Z,100414.51
2023-04-04T04:25:30.093Z,100414.02
2023-04-04T04:25:59.117Z,100412.30
2023-04-04T04:26:23.772Z,100414.42
2023-04-04T04:26:46.988Z,100411.08
2023-04-04T04:27:12.345Z,100412.19
2023-04-04T04:27:41.806Z,100413.48
2023-04-04T04:28:05.117Z,100411.45
2023-04-04T04:28:33.256Z,100412.21
2023-04-04T04:28:58.211Z,100411.34
2023-04-04T04:29:26.533Z,100412.30
2023-04-04T04:29:49.954Z,100411.83
2023-04-04T04:30:13.891Z,100412.08
2023-04-04T04:30:51.516Z,100411.14
2023-04-04T04:31:17.517Z,100413.30
2023-04-04T04:31:44.006Z,100412.15
2023-04-04T04:32:07.920Z,100412.60
2023-04-04T04:32:33.804Z,100410.30
2023-04-04T04:32:57.256Z,100412.79
2023-04-04T04:33:30.665Z,100412.15
2023-04-04T04:34:05.136Z,100414.36
2023-04-04T04:34:28.557Z,100413.42
2023-04-04T04:34:54.422Z,100411.92
2023-04-04T04:35:24.594Z,100414.27
2023-04-04T04:35:49.205Z,100413.37
2023-04-04T04:36:12.630Z,100413.73
2023-04-04T04:37:11.985Z,100416.22
2023-04-04T04:37:42.769Z,100416.56
2023-04-04T04:38:07.014Z,100419.52
2023-04-04T04:38:30.969Z,100418.05
2023-04-04T04:38:54.455Z,100419.41
2023-04-04T04:39:18.697Z,100419.16
2023-04-04T04:39:53.322Z,100420.30
2023-04-04T04:40:36.935Z,100421.39
2023-04-04T04:41:06.916Z,100421.61
2023-04-04T04:41:38.815Z,100424.02
2023-04-04T04:42:03.772Z,100423.10
2023-04-04T04:42:29.546Z,100424.54
2023-04-04T04:42:53.577Z,100424.55
2023-04-04T04:43:18.638Z,100423.65
2023-04-04T04:43:43.821Z,100423.30
2023-04-04T04:44:06.910Z,100426.10
2023-04-04T04:44:30.749Z,100425.65
2023-04-04T04:44:53.962Z,100428.17
2023-04-04T04:45:17.316Z,100426.64
2023-04-04T04:45:43.560Z,100426.94
2023-04-04T04:46:08.821Z,100427.23
2023-04-04T04:46:33.320Z,100426.84
2023-04-04T04:47:01.041Z,100425.92
2023-04-04T04:47:30.164Z,100425.11